Greenville Spartanburg International Airport
KGSP : now visible

Airfield :











YOU CAN JOIN US ON...

 
LOGIN :

Register | Disclaimer

   EN    FR    IT 

 









Legend :    VFR   Marginal VFR   IFR   Intensive IFR   Very Intensive IFR
Visi :
Ceiling :
>= 8 km
>= 3000ft
5 to 8 km
1000 to 3000 ft
1500m to 5 km
500 to 1000 ft
800 to 1500m
200 to 500 ft
< 800m
< 200 ft
Symbols :   Thunderstorms  Fog  Heavy snow  Heavy precipitations  Wind > 20 kt






- Airport Elevation : 964 ft
- IATA code : GSP


KGSP - Greenville Spartanburg International

CURRENT METAR :
  • 230153Z AUTO 00000KT 10SM CLR 17/17 A3020 RMK AO2 SLP218 T01720167

EXPIRED METARs :
  • 230053Z AUTO 00000KT 10SM CLR 18/17 A3020 RMK AO2 SLP218 T01780172
  • 222353Z AUTO 00000KT 10SM CLR 19/18 A3018 RMK AO2 SLP213 T01940178 10261 20189 53003

TAF KGSP
Valid from the 23 at 00:00 until the 24 at 00:00 UTC


222338Z 2300/2324 00000KT P6SM SCT250
FM230600 VRB02KT P6SM BKN050
FM231500 09003KT P6SM SCT050 BKN120
FM231700 13003KT P6SM BKN090
FM232100 16004KT P6SM SCT150
KZTL FIR / North America



MET'MAP, your aeronautical weather chart ! - Copyright ORBIFLY December 2007 - Disclaimer

ORBIFLY MET'MAP TEAM :

Programming & Development : Alexandra Zaïnal
Concept & original design : Baudouin d'Aumeries
Assistance for programming : Marc-Olivier Méhu
Technical & hardware support : Manuel Goepfert

Contact : metmap@orbifly.com




SOURCES & CREDITS :

   NOAA       Earth
Advisory